sensor_id;sensor_type;location;lat;lon;timestamp;temperature;humidity
45012;DHT22;63444;48.148;11.542;2023-04-06T00:01:45;5.00;69.30
45012;DHT22;63444;48.148;11.542;2023-04-06T00:04:12;5.00;69.60
45012;DHT22;63444;48.148;11.542;2023-04-06T00:06:37;5.00;69.80
45012;DHT22;63444;48.148;11.542;2023-04-06T00:09:03;5.00;70.00
45012;DHT22;63444;48.148;11.542;2023-04-06T00:11:29;5.00;70.40
45012;DHT22;63444;48.148;11.542;2023-04-06T00:13:54;5.00;70.70
45012;DHT22;63444;48.148;11.542;2023-04-06T00:16:20;4.90;70.80
45012;DHT22;63444;48.148;11.542;2023-04-06T00:18:45;4.90;70.90
45012;DHT22;63444;48.148;11.542;2023-04-06T00:21:12;5.10;71.00
45012;DHT22;63444;48.148;11.542;2023-04-06T00:23:38;4.80;70.80
45012;DHT22;63444;48.148;11.542;2023-04-06T00:26:04;4.80;71.00
45012;DHT22;63444;48.148;11.542;2023-04-06T00:28:30;4.70;71.10
45012;DHT22;63444;48.148;11.542;2023-04-06T00:30:56;4.70;71.30
45012;DHT22;63444;48.148;11.542;2023-04-06T00:33:24;4.60;71.30
45012;DHT22;63444;48.148;11.542;2023-04-06T00:35:51;4.80;71.60
45012;DHT22;63444;48.148;11.542;2023-04-06T00:38:16;4.70;71.70
45012;DHT22;63444;48.148;11.542;2023-04-06T00:40:43;4.70;71.80
45012;DHT22;63444;48.148;11.542;2023-04-06T00:43:13;4.70;71.90
45012;DHT22;63444;48.148;11.542;2023-04-06T00:45:39;4.60;72.00
45012;DHT22;63444;48.148;11.542;2023-04-06T00:48:06;4.60;72.20
45012;DHT22;63444;48.148;11.542;2023-04-06T00:50:31;4.60;72.40
45012;DHT22;63444;48.148;11.542;2023-04-06T00:52:58;4.60;72.60
45012;DHT22;63444;48.148;11.542;2023-04-06T00:55:25;4.50;72.80
45012;DHT22;63444;48.148;11.542;2023-04-06T00:57:51;4.50;73.10
45012;DHT22;63444;48.148;11.542;2023-04-06T01:00:17;4.50;73.30
45012;DHT22;63444;48.148;11.542;2023-04-06T01:02:43;4.40;73.50
45012;DHT22;63444;48.148;11.542;2023-04-06T01:05:10;4.40;73.70
45012;DHT22;63444;48.148;11.542;2023-04-06T01:07:36;4.40;74.00
45012;DHT22;63444;48.148;11.542;2023-04-06T01:10:01;4.40;74.20
45012;DHT22;63444;48.148;11.542;2023-04-06T01:12:28;4.40;74.30
45012;DHT22;63444;48.148;11.542;2023-04-06T01:14:54;4.40;74.70
45012;DHT22;63444;48.148;11.542;2023-04-06T01:17:20;4.50;75.10
45012;DHT22;63444;48.148;11.542;2023-04-06T01:19:45;4.40;75.00
45012;DHT22;63444;48.148;11.542;2023-04-06T01:22:18;4.30;75.20
45012;DHT22;63444;48.148;11.542;2023-04-06T01:24:44;4.30;75.10
45012;DHT22;63444;48.148;11.542;2023-04-06T01:27:09;4.20;75.00
45012;DHT22;63444;48.148;11.542;2023-04-06T01:29:35;4.20;74.90
45012;DHT22;63444;48.148;11.542;2023-04-06T01:32:01;4.20;74.90
45012;DHT22;63444;48.148;11.542;2023-04-06T01:34:26;4.20;75.10
45012;DHT22;63444;48.148;11.542;2023-04-06T01:36:52;4.20;75.20
45012;DHT22;63444;48.148;11.542;2023-04-06T01:39:19;4.10;75.30
45012;DHT22;63444;48.148;11.542;2023-04-06T01:41:45;4.10;75.50
45012;DHT22;63444;48.148;11.542;2023-04-06T01:44:12;4.10;75.70
45012;DHT22;63444;48.148;11.542;2023-04-06T01:46:38;4.00;75.60
45012;DHT22;63444;48.148;11.542;2023-04-06T01:49:04;4.00;75.70
45012;DHT22;63444;48.148;11.542;2023-04-06T01:51:29;4.00;75.80
45012;DHT22;63444;48.148;11.542;2023-04-06T01:53:55;3.90;76.10
45012;DHT22;63444;48.148;11.542;2023-04-06T01:56:21;4.00;76.00
45012;DHT22;63444;48.148;11.542;2023-04-06T01:58:46;3.80;75.90
45012;DHT22;63444;48.148;11.542;2023-04-06T02:01:12;3.80;76.10
45012;DHT22;63444;48.148;11.542;2023-04-06T02:03:37;3.90;76.20
45012;DHT22;63444;48.148;11.542;2023-04-06T02:06:03;3.90;76.30
45012;DHT22;63444;48.148;11.542;2023-04-06T02:08:29;3.90;76.40
45012;DHT22;63444;48.148;11.542;2023-04-06T02:10:54;3.90;76.20
45012;DHT22;63444;48.148;11.542;2023-04-06T02:13:20;3.80;76.20
45012;DHT22;63444;48.148;11.542;2023-04-06T02:15:46;3.60;76.10
45012;DHT22;63444;48.148;11.542;2023-04-06T02:18:11;3.60;76.50
45012;DHT22;63444;48.148;11.542;2023-04-06T02:20:37;3.60;76.70
45012;DHT22;63444;48.148;11.542;2023-04-06T02:23:02;3.50;76.80
45012;DHT22;63444;48.148;11.542;2023-04-06T02:25:28;3.50;76.90
45012;DHT22;63444;48.148;11.542;2023-04-06T02:27:54;3.40;76.90
45012;DHT22;63444;48.148;11.542;2023-04-06T02:30:19;3.40;77.10
45012;DHT22;63444;48.148;11.542;2023-04-06T02:32:45;3.40;77.30
45012;DHT22;63444;48.148;11.542;2023-04-06T02:35:10;3.20;77.60
45012;DHT22;63444;48.148;11.542;2023-04-06T02:37:36;3.30;78.10
45012;DHT22;63444;48.148;11.542;2023-04-06T02:40:02;3.10;78.20
45012;DHT22;63444;48.148;11.542;2023-04-06T02:42:27;3.10;78.70
45012;DHT22;63444;48.148;11.542;2023-04-06T02:44:53;3.00;78.90
45012;DHT22;63444;48.148;11.542;2023-04-06T02:47:19;3.00;78.90
45012;DHT22;63444;48.148;11.542;2023-04-06T02:49:44;3.00;78.90
45012;DHT22;63444;48.148;11.542;2023-04-06T02:52:10;2.90;79.10
45012;DHT22;63444;48.148;11.542;2023-04-06T02:54:36;2.90;79.40
45012;DHT22;63444;48.148;11.542;2023-04-06T02:57:01;2.80;79.40
45012;DHT22;63444;48.148;11.542;2023-04-06T02:59:27;2.80;79.40
45012;DHT22;63444;48.148;11.542;2023-04-06T03:01:52;2.80;79.60
45012;DHT22;63444;48.148;11.542;2023-04-06T03:04:18;2.70;79.80
45012;DHT22;63444;48.148;11.542;2023-04-06T03:06:44;2.70;80.00
45012;DHT22;63444;48.148;11.542;2023-04-06T03:09:09;2.90;80.30
45012;DHT22;63444;48.148;11.542;2023-04-06T03:11:35;2.80;80.20
45012;DHT22;63444;48.148;11.542;2023-04-06T03:14:00;2.80;79.90
45012;DHT22;63444;48.148;11.542;2023-04-06T03:16:26;3.10;80.20
45012;DHT22;63444;48.148;11.542;2023-04-06T03:18:51;2.90;79.80
45012;DHT22;63444;48.148;11.542;2023-04-06T03:21:17;3.00;80.00
45012;DHT22;63444;48.148;11.542;2023-04-06T03:23:44;3.00;80.10
45012;DHT22;63444;48.148;11.542;2023-04-06T03:26:10;3.00;80.10
45012;DHT22;63444;48.148;11.542;2023-04-06T03:28:35;3.00;80.20
45012;DHT22;63444;48.148;11.542;2023-04-06T03:31:01;3.10;80.30
45012;DHT22;63444;48.148;11.542;2023-04-06T03:33:27;3.10;80.30
45012;DHT22;63444;48.148;11.542;2023-04-06T03:35:53;3.10;80.30
45012;DHT22;63444;48.148;11.542;2023-04-06T03:38:19;3.10;80.30
45012;DHT22;63444;48.148;11.542;2023-04-06T03:40:45;3.30;81.60
45012;DHT22;63444;48.148;11.542;2023-04-06T03:43:11;3.10;80.70
45012;DHT22;63444;48.148;11.542;2023-04-06T03:45:36;3.10;80.90
45012;DHT22;63444;48.148;11.542;2023-04-06T03:48:02;3.10;81.10
45012;DHT22;63444;48.148;11.542;2023-04-06T03:50:28;3.10;81.40
45012;DHT22;63444;48.148;11.542;2023-04-06T03:52:53;3.10;82.10
45012;DHT22;63444;48.148;11.542;2023-04-06T03:55:19;3.00;81.90
45012;DHT22;63444;48.148;11.542;2023-04-06T03:57:45;2.90;81.80
45012;DHT22;63444;48.148;11.542;2023-04-06T04:00:11;2.90;81.90
45012;DHT22;63444;48.148;11.542;2023-04-06T04:02:37;2.90;82.40
45012;DHT22;63444;48.148;11.542;2023-04-06T04:05:03;2.80;82.50
45012;DHT22;63444;48.148;11.542;2023-04-06T04:07:28;2.80;82.40
45012;DHT22;63444;48.148;11.542;2023-04-06T04:09:54;2.80;82.40
45012;DHT22;63444;48.148;11.542;2023-04-06T04:12:20;2.80;82.60
45012;DHT22;63444;48.148;11.542;2023-04-06T04:14:45;2.60;82.80
45012;DHT22;63444;48.148;11.542;2023-04-06T04:17:11;2.60;83.00
45012;DHT22;63444;48.148;11.542;2023-04-06T04:19:37;2.60;83.20
45012;DHT22;63444;48.148;11.542;2023-04-06T04:22:02;2.60;83.90
45012;DHT22;63444;48.148;11.542;2023-04-06T04:24:30;2.70;83.30
45012;DHT22;63444;48.148;11.542;2023-04-06T04:26:56;2.70;83.10
45012;DHT22;63444;48.148;11.542;2023-04-06T04:29:22;2.70;83.10
45012;DHT22;63444;48.148;11.542;2023-04-06T04:31:48;2.70;83.10
45012;DHT22;63444;48.148;11.542;2023-04-06T04:34:14;2.70;83.20
45012;DHT22;63444;48.148;11.542;2023-04-06T04:36:40;2.80;83.30
45012;DHT22;63444;48.148;11.542;2023-04-06T04:39:07;2.90;83.30
45012;DHT22;63444;48.148;11.542;2023-04-06T04:41:33;2.70;83.20
45012;DHT22;63444;48.148;11.542;2023-04-06T04:43:58;2.70;83.50
45012;DHT22;63444;48.148;11.542;2023-04-06T04:46:24;2.70;83.60
45012;DHT22;63444;48.148;11.542;2023-04-06T04:48:50;2.80;83.80
45012;DHT22;63444;48.148;11.542;2023-04-06T04:51:15;2.80;83.80
45012;DHT22;63444;48.148;11.542;2023-04-06T04:53:41;2.70;83.80
45012;DHT22;63444;48.148;11.542;2023-04-06T04:56:06;2.70;84.40
45012;DHT22;63444;48.148;11.542;2023-04-06T04:58:32;2.70;84.60
45012;DHT22;63444;48.148;11.542;2023-04-06T05:00:58;2.70;85.30
45012;DHT22;63444;48.148;11.542;2023-04-06T05:03:25;2.70;85.60
45012;DHT22;63444;48.148;11.542;2023-04-06T05:05:51;2.70;85.30
45012;DHT22;63444;48.148;11.542;2023-04-06T05:08:17;2.70;85.30
45012;DHT22;63444;48.148;11.542;2023-04-06T05:10:43;2.50;85.30
45012;DHT22;63444;48.148;11.542;2023-04-06T05:13:10;2.60;85.60
45012;DHT22;63444;48.148;11.542;2023-04-06T05:15:36;2.60;85.80
45012;DHT22;63444;48.148;11.542;2023-04-06T05:18:04;2.60;86.10
45012;DHT22;63444;48.148;11.542;2023-04-06T05:20:30;2.60;86.20
45012;DHT22;63444;48.148;11.542;2023-04-06T05:22:56;2.70;86.10
45012;DHT22;63444;48.148;11.542;2023-04-06T05:25:23;2.70;86.00
45012;DHT22;63444;48.148;11.542;2023-04-06T05:27:49;2.70;86.10
45012;DHT22;63444;48.148;11.542;2023-04-06T05:30:15;2.80;86.10
45012;DHT22;63444;48.148;11.542;2023-04-06T05:32:41;2.80;86.10
45012;DHT22;63444;48.148;11.542;2023-04-06T05:35:09;2.80;86.10
45012;DHT22;63444;48.148;11.542;2023-04-06T05:37:35;2.80;86.10
45012;DHT22;63444;48.148;11.542;2023-04-06T05:40:00;2.80;86.10
45012;DHT22;63444;48.148;11.542;2023-04-06T05:42:26;2.80;86.00
45012;DHT22;63444;48.148;11.542;2023-04-06T05:44:52;3.10;86.20
45012;DHT22;63444;48.148;11.542;2023-04-06T05:47:18;2.90;86.10
45012;DHT22;63444;48.148;11.542;2023-04-06T05:49:43;3.20;87.30
45012;DHT22;63444;48.148;11.542;2023-04-06T05:52:09;3.00;86.20
45012;DHT22;63444;48.148;11.542;2023-04-06T05:54:36;3.00;86.20
45012;DHT22;63444;48.148;11.542;2023-04-06T05:57:03;3.10;86.40
45012;DHT22;63444;48.148;11.542;2023-04-06T05:59:31;3.10;86.20
45012;DHT22;63444;48.148;11.542;2023-04-06T06:01:56;3.40;86.20
45012;DHT22;63444;48.148;11.542;2023-04-06T06:04:22;3.30;85.70
45012;DHT22;63444;48.148;11.542;2023-04-06T06:06:48;3.40;85.50
45012;DHT22;63444;48.148;11.542;2023-04-06T06:09:13;3.80;85.60
45012;DHT22;63444;48.148;11.542;2023-04-06T06:11:40;3.60;85.20
45012;DHT22;63444;48.148;11.542;2023-04-06T06:14:06;3.70;84.90
45012;DHT22;63444;48.148;11.542;2023-04-06T06:16:32;3.90;84.50
45012;DHT22;63444;48.148;11.542;2023-04-06T06:18:57;4.00;84.20
45012;DHT22;63444;48.148;11.542;2023-04-06T06:21:23;4.10;83.90
45012;DHT22;63444;48.148;11.542;2023-04-06T06:23:48;4.20;83.70
45012;DHT22;63444;48.148;11.542;2023-04-06T06:26:17;4.30;83.40
45012;DHT22;63444;48.148;11.542;2023-04-06T06:28:42;4.40;83.10
45012;DHT22;63444;48.148;11.542;2023-04-06T06:31:08;4.60;83.10
45012;DHT22;63444;48.148;11.542;2023-04-06T06:33:34;4.70;82.80
45012;DHT22;63444;48.148;11.542;2023-04-06T06:35:59;4.80;82.30
45012;DHT22;63444;48.148;11.542;2023-04-06T06:38:25;5.00;81.90
45012;DHT22;63444;48.148;11.542;2023-04-06T06:40:51;5.30;81.80
45012;DHT22;63444;48.148;11.542;2023-04-06T06:43:17;5.20;80.90
45012;DHT22;63444;48.148;11.542;2023-04-06T06:45:43;5.30;80.50
45012;DHT22;63444;48.148;11.542;2023-04-06T06:48:09;5.30;80.60
45012;DHT22;63444;48.148;11.542;2023-04-06T06:50:36;5.50;80.70
45012;DHT22;63444;48.148;11.542;2023-04-06T06:53:01;5.40;80.20
45012;DHT22;63444;48.148;11.542;2023-04-06T06:55:27;5.50;80.00
45012;DHT22;63444;48.148;11.542;2023-04-06T06:57:53;5.70;80.00
45012;DHT22;63444;48.148;11.542;2023-04-06T07:00:19;5.70;79.50
45012;DHT22;63444;48.148;11.542;2023-04-06T07:02:47;6.00;79.00
45012;DHT22;63444;48.148;11.542;2023-04-06T07:05:13;6.20;77.80
45012;DHT22;63444;48.148;11.542;2023-04-06T07:07:39;6.30;77.20
45012;DHT22;63444;48.148;11.542;2023-04-06T07:10:05;6.40;76.60
45012;DHT22;63444;48.148;11.542;2023-04-06T07:12:31;6.50;76.10
45012;DHT22;63444;48.148;11.542;2023-04-06T07:25:24;7.10;73.40
45012;DHT22;63444;48.148;11.542;2023-04-06T07:27:50;7.20;74.00
45012;DHT22;63444;48.148;11.542;2023-04-06T07:30:15;7.20;73.00
45012;DHT22;63444;48.148;11.542;2023-04-06T07:32:41;7.20;72.70
45012;DHT22;63444;48.148;11.542;2023-04-06T07:35:07;7.30;72.70
45012;DHT22;63444;48.148;11.542;2023-04-06T07:37:33;7.40;72.60
45012;DHT22;63444;48.148;11.542;2023-04-06T07:39:58;7.50;72.00
45012;DHT22;63444;48.148;11.542;2023-04-06T07:42:24;7.50;70.60
45012;DHT22;63444;48.148;11.542;2023-04-06T07:44:50;7.70;70.10
45012;DHT22;63444;48.148;11.542;2023-04-06T07:47:15;7.90;69.60
45012;DHT22;63444;48.148;11.542;2023-04-06T07:49:41;8.20;69.10
45012;DHT22;63444;48.148;11.542;2023-04-06T07:52:07;8.20;68.40
45012;DHT22;63444;48.148;11.542;2023-04-06T07:54:33;8.20;67.60
45012;DHT22;63444;48.148;11.542;2023-04-06T07:56:58;8.30;67.30
45012;DHT22;63444;48.148;11.542;2023-04-06T07:59:24;8.50;67.10
45012;DHT22;63444;48.148;11.542;2023-04-06T08:01:50;8.70;67.00
45012;DHT22;63444;48.148;11.542;2023-04-06T08:04:15;8.90;66.10
45012;DHT22;63444;48.148;11.542;2023-04-06T08:06:41;9.10;65.80
45012;DHT22;63444;48.148;11.542;2023-04-06T08:09:07;9.40;64.40
45012;DHT22;63444;48.148;11.542;2023-04-06T08:11:33;9.70;64.20
45012;DHT22;63444;48.148;11.542;2023-04-06T08:13:58;10.00;62.70
45012;DHT22;63444;48.148;11.542;2023-04-06T08:16:24;10.20;62.80
45012;DHT22;63444;48.148;11.542;2023-04-06T08:18:50;10.30;61.10
45012;DHT22;63444;48.148;11.542;2023-04-06T08:21:19;10.40;59.60
45012;DHT22;63444;48.148;11.542;2023-04-06T08:23:44;10.20;57.90
45012;DHT22;63444;48.148;11.542;2023-04-06T08:26:11;10.40;57.90
45012;DHT22;63444;48.148;11.542;2023-04-06T08:28:38;10.50;57.90
45012;DHT22;63444;48.148;11.542;2023-04-06T08:31:05;10.60;58.20
45012;DHT22;63444;48.148;11.542;2023-04-06T08:33:31;10.90;58.00
45012;DHT22;63444;48.148;11.542;2023-04-06T08:35:57;11.00;57.20
45012;DHT22;63444;48.148;11.542;2023-04-06T08:38:23;11.10;56.50
45012;DHT22;63444;48.148;11.542;2023-04-06T08:40:50;11.40;56.40
45012;DHT22;63444;48.148;11.542;2023-04-06T08:43:17;11.70;55.40
45012;DHT22;63444;48.148;11.542;2023-04-06T08:45:45;12.00;55.10
45012;DHT22;63444;48.148;11.542;2023-04-06T08:48:11;12.40;55.50
45012;DHT22;63444;48.148;11.542;2023-04-06T08:50:38;12.80;54.50
45012;DHT22;63444;48.148;11.542;2023-04-06T08:53:06;13.30;53.50
45012;DHT22;63444;48.148;11.542;2023-04-06T08:55:32;13.70;54.00
45012;DHT22;63444;48.148;11.542;2023-04-06T08:57:59;14.10;51.90
45012;DHT22;63444;48.148;11.542;2023-04-06T09:00:28;14.60;51.10
45012;DHT22;63444;48.148;11.542;2023-04-06T09:02:58;15.10;50.00
45012;DHT22;63444;48.148;11.542;2023-04-06T09:05:25;15.50;47.90
45012;DHT22;63444;48.148;11.542;2023-04-06T09:07:52;15.50;47.90
45012;DHT22;63444;48.148;11.542;2023-04-06T09:10:18;15.60;48.20
45012;DHT22;63444;48.148;11.542;2023-04-06T09:12:45;15.60;47.00
45012;DHT22;63444;48.148;11.542;2023-04-06T09:15:19;15.30;47.30
45012;DHT22;63444;48.148;11.542;2023-04-06T09:17:46;15.30;48.10
45012;DHT22;63444;48.148;11.542;2023-04-06T09:20:13;15.40;48.20
45012;DHT22;63444;48.148;11.542;2023-04-06T09:22:40;15.50;46.80
45012;DHT22;63444;48.148;11.542;2023-04-06T09:25:08;15.50;47.60
45012;DHT22;63444;48.148;11.542;2023-04-06T09:27:36;15.70;47.60
45012;DHT22;63444;48.148;11.542;2023-04-06T09:30:15;16.00;47.30
45012;DHT22;63444;48.148;11.542;2023-04-06T09:32:54;16.20;47.00
45012;DHT22;63444;48.148;11.542;2023-04-06T09:35:21;16.40;46.20
45012;DHT22;63444;48.148;11.542;2023-04-06T09:37:52;16.40;45.70
45012;DHT22;63444;48.148;11.542;2023-04-06T09:40:18;16.50;45.70
45012;DHT22;63444;48.148;11.542;2023-04-06T09:42:48;16.70;44.90
45012;DHT22;63444;48.148;11.542;2023-04-06T09:45:16;16.50;44.80
45012;DHT22;63444;48.148;11.542;2023-04-06T09:47:44;16.30;45.10
45012;DHT22;63444;48.148;11.542;2023-04-06T09:50:14;16.70;44.50
45012;DHT22;63444;48.148;11.542;2023-04-06T09:52:47;17.20;43.50
45012;DHT22;63444;48.148;11.542;2023-04-06T09:55:40;17.90;43.50
45012;DHT22;63444;48.148;11.542;2023-04-06T09:58:09;18.50;42.80
45012;DHT22;63444;48.148;11.542;2023-04-06T10:01:02;18.50;41.50
45012;DHT22;63444;48.148;11.542;2023-04-06T10:06:32;18.70;40.60
45012;DHT22;63444;48.148;11.542;2023-04-06T10:09:02;18.80;40.30
45012;DHT22;63444;48.148;11.542;2023-04-06T10:11:30;17.70;41.00
45012;DHT22;63444;48.148;11.542;2023-04-06T10:13:56;17.70;41.10
45012;DHT22;63444;48.148;11.542;2023-04-06T10:16:22;17.60;41.50
45012;DHT22;63444;48.148;11.542;2023-04-06T10:18:54;17.60;41.80
45012;DHT22;63444;48.148;11.542;2023-04-06T10:21:23;18.50;41.00
45012;DHT22;63444;48.148;11.542;2023-04-06T10:23:55;20.70;39.40
45012;DHT22;63444;48.148;11.542;2023-04-06T10:26:23;21.80;37.60
45012;DHT22;63444;48.148;11.542;2023-04-06T10:28:50;20.70;37.30
45012;DHT22;63444;48.148;11.542;2023-04-06T10:31:25;21.20;38.00
45012;DHT22;63444;48.148;11.542;2023-04-06T10:34:10;22.80;36.90
45012;DHT22;63444;48.148;11.542;2023-04-06T10:36:38;24.50;35.00
45012;DHT22;63444;48.148;11.542;2023-04-06T10:39:09;24.90;34.20
45012;DHT22;63444;48.148;11.542;2023-04-06T10:41:44;26.30;33.20
45012;DHT22;63444;48.148;11.542;2023-04-06T10:44:21;27.40;31.40
45012;DHT22;63444;48.148;11.542;2023-04-06T10:46:59;27.90;30.50
45012;DHT22;63444;48.148;11.542;2023-04-06T10:49:30;28.00;29.20
45012;DHT22;63444;48.148;11.542;2023-04-06T10:51:56;27.40;29.90
45012;DHT22;63444;48.148;11.542;2023-04-06T10:54:25;25.90;29.60
45012;DHT22;63444;48.148;11.542;2023-04-06T10:56:51;24.10;30.80
45012;DHT22;63444;48.148;11.542;2023-04-06T10:59:21;23.40;31.20
45012;DHT22;63444;48.148;11.542;2023-04-06T11:01:47;22.60;31.80
45012;DHT22;63444;48.148;11.542;2023-04-06T11:04:34;21.60;33.20
45012;DHT22;63444;48.148;11.542;2023-04-06T11:07:01;20.90;34.20
45012;DHT22;63444;48.148;11.542;2023-04-06T11:09:30;20.90;33.90
45012;DHT22;63444;48.148;11.542;2023-04-06T11:12:00;21.00;34.50
45012;DHT22;63444;48.148;11.542;2023-04-06T11:14:34;20.80;34.40
45012;DHT22;63444;48.148;11.542;2023-04-06T11:17:00;20.10;35.00
45012;DHT22;63444;48.148;11.542;2023-04-06T11:19:28;19.90;35.20
45012;DHT22;63444;48.148;11.542;2023-04-06T11:21:54;18.80;35.50
45012;DHT22;63444;48.148;11.542;2023-04-06T11:24:22;18.50;36.60
45012;DHT22;63444;48.148;11.542;2023-04-06T11:26:56;18.70;36.70
45012;DHT22;63444;48.148;11.542;2023-04-06T11:29:25;19.00;36.60
45012;DHT22;63444;48.148;11.542;2023-04-06T11:32:05;19.10;36.30
45012;DHT22;63444;48.148;11.542;2023-04-06T11:34:37;18.90;36.20
45012;DHT22;63444;48.148;11.542;2023-04-06T11:37:09;18.70;36.50
45012;DHT22;63444;48.148;11.542;2023-04-06T11:40:02;18.40;37.50
45012;DHT22;63444;48.148;11.542;2023-04-06T11:42:29;17.90;38.10
45012;DHT22;63444;48.148;11.542;2023-04-06T11:44:56;17.40;38.40
45012;DHT22;63444;48.148;11.542;2023-04-06T11:47:36;17.40;38.80
45012;DHT22;63444;48.148;11.542;2023-04-06T11:50:08;17.60;38.20
45012;DHT22;63444;48.148;11.542;2023-04-06T11:52:35;17.70;38.60
45012;DHT22;63444;48.148;11.542;2023-04-06T11:55:22;17.50;39.60
45012;DHT22;63444;48.148;11.542;2023-04-06T11:57:53;17.60;39.50
45012;DHT22;63444;48.148;11.542;2023-04-06T12:00:22;17.70;39.40
45012;DHT22;63444;48.148;11.542;2023-04-06T12:02:51;17.90;39.30
45012;DHT22;63444;48.148;11.542;2023-04-06T12:05:17;17.70;39.10
45012;DHT22;63444;48.148;11.542;2023-04-06T12:07:43;17.10;39.20
45012;DHT22;63444;48.148;11.542;2023-04-06T12:10:12;16.50;39.50
45012;DHT22;63444;48.148;11.542;2023-04-06T12:12:39;16.20;40.10
45012;DHT22;63444;48.148;11.542;2023-04-06T12:15:13;16.20;41.30
45012;DHT22;63444;48.148;11.542;2023-04-06T12:17:40;16.20;40.90
45012;DHT22;63444;48.148;11.542;2023-04-06T12:20:16;16.10;40.30
45012;DHT22;63444;48.148;11.542;2023-04-06T12:22:42;15.80;39.80
45012;DHT22;63444;48.148;11.542;2023-04-06T12:25:09;15.70;40.10
45012;DHT22;63444;48.148;11.542;2023-04-06T12:27:36;15.50;40.70
45012;DHT22;63444;48.148;11.542;2023-04-06T12:30:04;15.40;39.70
45012;DHT22;63444;48.148;11.542;2023-04-06T12:32:31;15.50;41.00
45012;DHT22;63444;48.148;11.542;2023-04-06T12:34:58;15.40;40.00
45012;DHT22;63444;48.148;11.542;2023-04-06T12:37:24;15.20;41.90
45012;DHT22;63444;48.148;11.542;2023-04-06T12:39:50;15.00;42.40
45012;DHT22;63444;48.148;11.542;2023-04-06T12:42:26;15.00;42.90
45012;DHT22;63444;48.148;11.542;2023-04-06T12:44:51;15.20;41.90
45012;DHT22;63444;48.148;11.542;2023-04-06T12:47:17;15.00;42.80
45012;DHT22;63444;48.148;11.542;2023-04-06T12:49:46;15.20;42.20
45012;DHT22;63444;48.148;11.542;2023-04-06T12:52:18;15.50;41.90
45012;DHT22;63444;48.148;11.542;2023-04-06T12:54:48;15.30;41.60
45012;DHT22;63444;48.148;11.542;2023-04-06T12:57:13;15.40;41.50
45012;DHT22;63444;48.148;11.542;2023-04-06T12:59:43;15.60;41.10
45012;DHT22;63444;48.148;11.542;2023-04-06T13:02:09;15.60;40.90
45012;DHT22;63444;48.148;11.542;2023-04-06T13:04:35;15.30;40.60
45012;DHT22;63444;48.148;11.542;2023-04-06T13:07:01;15.00;41.40
45012;DHT22;63444;48.148;11.542;2023-04-06T13:09:27;14.80;42.10
45012;DHT22;63444;48.148;11.542;2023-04-06T13:12:16;14.60;42.00
45012;DHT22;63444;48.148;11.542;2023-04-06T13:14:42;14.60;42.30
45012;DHT22;63444;48.148;11.542;2023-04-06T13:17:08;14.60;42.30
45012;DHT22;63444;48.148;11.542;2023-04-06T13:19:38;14.50;42.20
45012;DHT22;63444;48.148;11.542;2023-04-06T13:22:09;14.40;42.10
45012;DHT22;63444;48.148;11.542;2023-04-06T13:24:34;14.30;42.20
45012;DHT22;63444;48.148;11.542;2023-04-06T13:27:02;14.10;42.50
45012;DHT22;63444;48.148;11.542;2023-04-06T13:29:40;14.20;42.30
45012;DHT22;63444;48.148;11.542;2023-04-06T13:32:08;14.10;42.90
45012;DHT22;63444;48.148;11.542;2023-04-06T13:34:35;14.10;43.60
45012;DHT22;63444;48.148;11.542;2023-04-06T13:37:01;14.10;44.30
45012;DHT22;63444;48.148;11.542;2023-04-06T13:39:26;14.20;44.60
45012;DHT22;63444;48.148;11.542;2023-04-06T13:41:54;14.30;43.70
45012;DHT22;63444;48.148;11.542;2023-04-06T13:44:21;14.20;43.70
45012;DHT22;63444;48.148;11.542;2023-04-06T13:46:47;14.30;43.70
45012;DHT22;63444;48.148;11.542;2023-04-06T13:49:13;14.30;44.00
45012;DHT22;63444;48.148;11.542;2023-04-06T13:51:39;14.40;43.70
45012;DHT22;63444;48.148;11.542;2023-04-06T13:54:05;14.70;43.40
45012;DHT22;63444;48.148;11.542;2023-04-06T13:56:31;14.90;43.00
45012;DHT22;63444;48.148;11.542;2023-04-06T13:58:59;15.00;43.00
45012;DHT22;63444;48.148;11.542;2023-04-06T14:01:24;15.10;42.80
45012;DHT22;63444;48.148;11.542;2023-04-06T14:03:53;15.10;43.40
45012;DHT22;63444;48.148;11.542;2023-04-06T14:06:21;14.90;43.90
45012;DHT22;63444;48.148;11.542;2023-04-06T14:08:49;14.90;43.70
45012;DHT22;63444;48.148;11.542;2023-04-06T14:11:14;14.90;43.40
45012;DHT22;63444;48.148;11.542;2023-04-06T14:13:41;15.10;42.60
45012;DHT22;63444;48.148;11.542;2023-04-06T14:16:07;15.10;42.10
45012;DHT22;63444;48.148;11.542;2023-04-06T14:18:33;14.80;42.30
45012;DHT22;63444;48.148;11.542;2023-04-06T14:21:00;14.60;42.80
45012;DHT22;63444;48.148;11.542;2023-04-06T14:23:27;14.60;43.30
45012;DHT22;63444;48.148;11.542;2023-04-06T14:26:04;14.50;43.10
45012;DHT22;63444;48.148;11.542;2023-04-06T14:28:34;14.30;43.70
45012;DHT22;63444;48.148;11.542;2023-04-06T14:31:08;13.90;43.80
45012;DHT22;63444;48.148;11.542;2023-04-06T14:33:34;13.80;44.20
45012;DHT22;63444;48.148;11.542;2023-04-06T14:36:05;13.70;44.30
45012;DHT22;63444;48.148;11.542;2023-04-06T14:38:34;13.50;44.40
45012;DHT22;63444;48.148;11.542;2023-04-06T14:41:01;13.50;44.90
45012;DHT22;63444;48.148;11.542;2023-04-06T14:43:26;13.30;45.10
45012;DHT22;63444;48.148;11.542;2023-04-06T14:45:52;13.20;45.30
45012;DHT22;63444;48.148;11.542;2023-04-06T14:48:18;13.20;44.90
45012;DHT22;63444;48.148;11.542;2023-04-06T14:50:57;13.30;45.50
45012;DHT22;63444;48.148;11.542;2023-04-06T14:53:23;13.30;45.50
45012;DHT22;63444;48.148;11.542;2023-04-06T14:55:49;13.60;45.40
45012;DHT22;63444;48.148;11.542;2023-04-06T14:58:18;13.70;45.00
45012;DHT22;63444;48.148;11.542;2023-04-06T15:00:44;13.90;44.70
45012;DHT22;63444;48.148;11.542;2023-04-06T15:03:13;13.80;44.50
45012;DHT22;63444;48.148;11.542;2023-04-06T15:05:39;13.70;45.10
45012;DHT22;63444;48.148;11.542;2023-04-06T15:08:05;13.60;45.10
45012;DHT22;63444;48.148;11.542;2023-04-06T15:10:34;13.40;44.20
45012;DHT22;63444;48.148;11.542;2023-04-06T15:12:59;13.30;43.80
45012;DHT22;63444;48.148;11.542;2023-04-06T15:15:28;13.40;44.30
45012;DHT22;63444;48.148;11.542;2023-04-06T15:17:54;13.40;43.40
45012;DHT22;63444;48.148;11.542;2023-04-06T15:20:20;13.30;42.90
45012;DHT22;63444;48.148;11.542;2023-04-06T15:22:45;13.30;43.40
45012;DHT22;63444;48.148;11.542;2023-04-06T15:25:11;13.30;43.10
45012;DHT22;63444;48.148;11.542;2023-04-06T15:27:38;13.30;42.70
45012;DHT22;63444;48.148;11.542;2023-04-06T15:30:04;13.30;42.50
45012;DHT22;63444;48.148;11.542;2023-04-06T15:32:30;13.10;42.40
45012;DHT22;63444;48.148;11.542;2023-04-06T15:34:58;13.20;42.40
45012;DHT22;63444;48.148;11.542;2023-04-06T15:37:25;13.10;42.00
45012;DHT22;63444;48.148;11.542;2023-04-06T15:39:52;13.00;42.20